logo

United by the hobby
of model aircraft flying

Promoting safe
radio model flying

Sharing the experience
of RC flying

Dedicated to the sport of model aviation

Meeting
Venue

Third Monday Each Month
Crown Point Civic Center
101 S East Street
Crown Point, IN 46307

Read More

email:
[javascript protected email address]

View our events calendar

2020

Weather Conditions

Elev 730 ft    41.19°N  87.16°W

73.0 °F
230°
12 m/h
Wind Variable Wind from SW

Current Conditions

Pressure 29.62 in
Visibility 10 miles
Clouds Clear
Dew Point 57.0 °F
Humidity 57 %
Rainfall 0.04 in
 
METAR KVPZ 080056Z AUTO 23010KT 10SM CLR 23/14 A2962 RMK AO2 SLP027 T02280139

Forecast

INFORMATION PROVIDED BY THE INDIANA STATE FORECAST - NATIONAL WEATHER SERVICE
Sunrise & Sunset
April 7, 2020
S:43 AM

4:37 PM
High 56 | Low 36°F
April 8, 2020
S:43 AM

4:37 PM
High | Low °F
 

our gallery

View All